Aviation Digital Data Service (ADDS)

Output produced by METARs form (2322 UTC 18 August 2019)
found at http://www.aviationweather.gov/metar/data/
 
METAR text: VTST 182100Z 00000KT 9999 FEW020 24/23 Q1009 NOSIG
Conditions at: VTST (TRANG , TH) observed 2100 UTC 18 August 2019
Temperature: 24.0°C (75°F)
Dewpoint: 23.0°C (73°F) [RH = 94%]
Pressure (altimeter): 29.79 inches Hg (1009.0 mb)
Winds: calm
Visibility: 6 or more miles (10+ km)
Ceiling: at least 12,000 feet AGL
Clouds: few clouds at 2000 feet AGL
Weather: no significant weather observed at this time

METAR text: VTST 181800Z 35003KT 9999 FEW020 25/24 Q1010 NOSIG
Conditions at: VTST (TRANG , TH) observed 1800 UTC 18 August 2019
Temperature: 25.0°C (77°F)
Dewpoint: 24.0°C (75°F) [RH = 94%]
Pressure (altimeter): 29.82 inches Hg (1010.0 mb)
Winds: from the N (350 degrees) at 3 MPH (3 knots; 1.5 m/s)
Visibility: 6 or more miles (10+ km)
Ceiling: at least 12,000 feet AGL
Clouds: few clouds at 2000 feet AGL
Weather: no significant weather observed at this time

METAR text: VTST 181500Z 00000KT 9999 FEW020 26/24 Q1011 NOSIG
Conditions at: VTST (TRANG , TH) observed 1500 UTC 18 August 2019
Temperature: 26.0°C (79°F)
Dewpoint: 24.0°C (75°F) [RH = 89%]
Pressure (altimeter): 29.85 inches Hg (1011.0 mb)
Winds: calm
Visibility: 6 or more miles (10+ km)
Ceiling: at least 12,000 feet AGL
Clouds: few clouds at 2000 feet AGL
Weather: no significant weather observed at this time

METAR text: VTST 181200Z 00000KT 9999 FEW020 29/23 Q1008 NOSIG
Conditions at: VTST (TRANG , TH) observed 1200 UTC 18 August 2019
Temperature: 29.0°C (84°F)
Dewpoint: 23.0°C (73°F) [RH = 70%]
Pressure (altimeter): 29.76 inches Hg (1008.0 mb)
Winds: calm
Visibility: 6 or more miles (10+ km)
Ceiling: at least 12,000 feet AGL
Clouds: few clouds at 2000 feet AGL
Weather: no significant weather observed at this time

METAR text: VTST 181100Z 26005KT 9999 FEW020 31/22 Q1008 NOSIG
Conditions at: VTST (TRANG , TH) observed 1100 UTC 18 August 2019
Temperature: 31.0°C (88°F)
Dewpoint: 22.0°C (72°F) [RH = 59%]
Pressure (altimeter): 29.76 inches Hg (1008.0 mb)
Winds: from the W (260 degrees) at 6 MPH (5 knots; 2.6 m/s)
Visibility: 6 or more miles (10+ km)
Ceiling: at least 12,000 feet AGL
Clouds: few clouds at 2000 feet AGL
Weather: no significant weather observed at this time

METAR text: VTST 181000Z 29005KT 9999 FEW020 33/23 Q1007 NOSIG
Conditions at: VTST (TRANG , TH) observed 1000 UTC 18 August 2019
Temperature: 33.0°C (91°F)
Dewpoint: 23.0°C (73°F) [RH = 56%]
Pressure (altimeter): 29.73 inches Hg (1007.0 mb)
Winds: from the WNW (290 degrees) at 6 MPH (5 knots; 2.6 m/s)
Visibility: 6 or more miles (10+ km)
Ceiling: at least 12,000 feet AGL
Clouds: few clouds at 2000 feet AGL
Weather: no significant weather observed at this time

METAR text: VTST 180900Z 36005KT 9999 FEW020 33/23 Q1007 NOSIG
Conditions at: VTST (TRANG , TH) observed 0900 UTC 18 August 2019
Temperature: 33.0°C (91°F)
Dewpoint: 23.0°C (73°F) [RH = 56%]
Pressure (altimeter): 29.73 inches Hg (1007.0 mb)
Winds: from the N (360 degrees) at 6 MPH (5 knots; 2.6 m/s)
Visibility: 6 or more miles (10+ km)
Ceiling: at least 12,000 feet AGL
Clouds: few clouds at 2000 feet AGL
Weather: no significant weather observed at this time

METAR text: VTST 180800Z 36005KT 9999 FEW020 33/23 Q1008 NOSIG
Conditions at: VTST (TRANG , TH) observed 0800 UTC 18 August 2019
Temperature: 33.0°C (91°F)
Dewpoint: 23.0°C (73°F) [RH = 56%]
Pressure (altimeter): 29.76 inches Hg (1008.0 mb)
Winds: from the N (360 degrees) at 6 MPH (5 knots; 2.6 m/s)
Visibility: 6 or more miles (10+ km)
Ceiling: at least 12,000 feet AGL
Clouds: few clouds at 2000 feet AGL
Weather: no significant weather observed at this time

METAR text: VTST 180700Z 36006KT 9999 FEW020 32/24 Q1008 NOSIG
Conditions at: VTST (TRANG , TH) observed 0700 UTC 18 August 2019
Temperature: 32.0°C (90°F)
Dewpoint: 24.0°C (75°F) [RH = 63%]
Pressure (altimeter): 29.76 inches Hg (1008.0 mb)
Winds: from the N (360 degrees) at 7 MPH (6 knots; 3.1 m/s)
Visibility: 6 or more miles (10+ km)
Ceiling: at least 12,000 feet AGL
Clouds: few clouds at 2000 feet AGL
Weather: no significant weather observed at this time

METAR text: VTST 180600Z 34002KT 9999 FEW020 32/24 Q1009 NOSIG
Conditions at: VTST (TRANG , TH) observed 0600 UTC 18 August 2019
Temperature: 32.0°C (90°F)
Dewpoint: 24.0°C (75°F) [RH = 63%]
Pressure (altimeter): 29.79 inches Hg (1009.0 mb)
Winds: from the NNW (340 degrees) at 2 MPH (2 knots; 1.0 m/s)
Visibility: 6 or more miles (10+ km)
Ceiling: at least 12,000 feet AGL
Clouds: few clouds at 2000 feet AGL
Weather: no significant weather observed at this time

METAR text: VTST 180500Z 06004KT 9999 FEW020 31/25 Q1010 NOSIG
Conditions at: VTST (TRANG , TH) observed 0500 UTC 18 August 2019
Temperature: 31.0°C (88°F)
Dewpoint: 25.0°C (77°F) [RH = 71%]
Pressure (altimeter): 29.82 inches Hg (1010.0 mb)
Winds: from the ENE (60 degrees) at 5 MPH (4 knots; 2.1 m/s)
Visibility: 6 or more miles (10+ km)
Ceiling: at least 12,000 feet AGL
Clouds: few clouds at 2000 feet AGL
Weather: no significant weather observed at this time

METAR text: VTST 180400Z 06004KT 9999 FEW020 31/25 Q1010 NOSIG
Conditions at: VTST (TRANG , TH) observed 0400 UTC 18 August 2019
Temperature: 31.0°C (88°F)
Dewpoint: 25.0°C (77°F) [RH = 71%]
Pressure (altimeter): 29.82 inches Hg (1010.0 mb)
Winds: from the ENE (60 degrees) at 5 MPH (4 knots; 2.1 m/s)
Visibility: 6 or more miles (10+ km)
Ceiling: at least 12,000 feet AGL
Clouds: few clouds at 2000 feet AGL
Weather: no significant weather observed at this time

METAR text: VTST 180300Z 02003KT 9999 FEW020 29/25 Q1011 NOSIG
Conditions at: VTST (TRANG , TH) observed 0300 UTC 18 August 2019
Temperature: 29.0°C (84°F)
Dewpoint: 25.0°C (77°F) [RH = 79%]
Pressure (altimeter): 29.85 inches Hg (1011.0 mb)
Winds: from the NNE (20 degrees) at 3 MPH (3 knots; 1.5 m/s)
Visibility: 6 or more miles (10+ km)
Ceiling: at least 12,000 feet AGL
Clouds: few clouds at 2000 feet AGL
Weather: no significant weather observed at this time

METAR text: VTST 180200Z 35004KT 9999 FEW020 27/25 Q1011 NOSIG
Conditions at: VTST (TRANG , TH) observed 0200 UTC 18 August 2019
Temperature: 27.0°C (81°F)
Dewpoint: 25.0°C (77°F) [RH = 89%]
Pressure (altimeter): 29.85 inches Hg (1011.0 mb)
Winds: from the N (350 degrees) at 5 MPH (4 knots; 2.1 m/s)
Visibility: 6 or more miles (10+ km)
Ceiling: at least 12,000 feet AGL
Clouds: few clouds at 2000 feet AGL
Weather: no significant weather observed at this time

METAR text: VTST 180100Z 00000KT 1500 BR FEW018 25/24 Q1011
Conditions at: VTST (TRANG , TH) observed 0100 UTC 18 August 2019
Temperature: 25.0°C (77°F)
Dewpoint: 24.0°C (75°F) [RH = 94%]
Pressure (altimeter): 29.85 inches Hg (1011.0 mb)
Winds: calm
Visibility: 0.93 miles (1.50 km)
Ceiling: at least 12,000 feet AGL
Clouds: few clouds at 1800 feet AGL
Weather: BR  (mist)

METAR text: VTST 180000Z 01002KT 0300 FG VV/// 24/24 Q1011
Conditions at: VTST (TRANG , TH) observed 0000 UTC 18 August 2019
Temperature: 24.0°C (75°F)
Dewpoint: 24.0°C (75°F) [RH = 100%]
Pressure (altimeter): 29.85 inches Hg (1011.0 mb)
Winds: from the N (10 degrees) at 2 MPH (2 knots; 1.0 m/s)
Visibility: 0.19 miles (0.31 km)
Ceiling: indefinite ceiling with vertical visibility of 0 feet AGL
Clouds: obscured sky
Weather: FG  (fog)

METAR text: VTST 172100Z 04002KT 9999 FEW020 24/24 Q1009 NOSIG
Conditions at: VTST (TRANG , TH) observed 2100 UTC 17 August 2019
Temperature: 24.0°C (75°F)
Dewpoint: 24.0°C (75°F) [RH = 100%]
Pressure (altimeter): 29.79 inches Hg (1009.0 mb)
Winds: from the NE (40 degrees) at 2 MPH (2 knots; 1.0 m/s)
Visibility: 6 or more miles (10+ km)
Ceiling: at least 12,000 feet AGL
Clouds: few clouds at 2000 feet AGL
Weather: no significant weather observed at this time

METAR text: VTST 171800Z 00000KT 9999 FEW020 25/24 Q1010 NOSIG
Conditions at: VTST (TRANG , TH) observed 1800 UTC 17 August 2019
Temperature: 25.0°C (77°F)
Dewpoint: 24.0°C (75°F) [RH = 94%]
Pressure (altimeter): 29.82 inches Hg (1010.0 mb)
Winds: calm
Visibility: 6 or more miles (10+ km)
Ceiling: at least 12,000 feet AGL
Clouds: few clouds at 2000 feet AGL
Weather: no significant weather observed at this time

METAR text: VTST 171500Z 00000KT 9999 FEW020 26/25 Q1010 NOSIG
Conditions at: VTST (TRANG , TH) observed 1500 UTC 17 August 2019
Temperature: 26.0°C (79°F)
Dewpoint: 25.0°C (77°F) [RH = 94%]
Pressure (altimeter): 29.82 inches Hg (1010.0 mb)
Winds: calm
Visibility: 6 or more miles (10+ km)
Ceiling: at least 12,000 feet AGL
Clouds: few clouds at 2000 feet AGL
Weather: no significant weather observed at this time

METAR text: VTST 171200Z 00000KT 9999 FEW020 28/26 Q1008 NOSIG
Conditions at: VTST (TRANG , TH) observed 1200 UTC 17 August 2019
Temperature: 28.0°C (82°F)
Dewpoint: 26.0°C (79°F) [RH = 89%]
Pressure (altimeter): 29.76 inches Hg (1008.0 mb)
Winds: calm
Visibility: 6 or more miles (10+ km)
Ceiling: at least 12,000 feet AGL
Clouds: few clouds at 2000 feet AGL
Weather: no significant weather observed at this time

Forecast for: VTST (TRANG , TH)
Text: TAF VTST 181700Z 1818/1918 00000KT 9999 FEW020
Forecast period: 1800 to 2200 UTC 18 August 2019
Forecast type: FROM: standard forecast or significant change
Winds: calm
Visibility: 6 or more miles 10+ km)
Ceiling: at least 12,000 feet AGL
Clouds: few clouds at 2000 feet AGL
Weather: no significant weather forecast for this period
Text: BECMG 1822/1824 5000 BR
Forecast period: 2200 UTC 18 August 2019 to 0000 UTC 19 August 2019
Forecast type: BECOMING: Conditions expected to become as follows by 0000 UTC 19 August 2019
Winds: calm
Visibility: 3 miles (5 km)
Ceiling: at least 12,000 feet AGL
Clouds: few clouds at 2000 feet AGL
Weather: BR  (mist)
Text: BECMG 1900/1902 30006KT
Forecast period: 0000 to 1200 UTC 19 August 2019
Forecast type: BECOMING: Conditions expected to become as follows by 0200 UTC 19 August 2019
Winds: from the WNW (300 degrees) at 7 MPH (6 knots; 3.1 m/s)
Visibility: 3 miles (5 km)
Ceiling: at least 12,000 feet AGL
Clouds: few clouds at 2000 feet AGL
Weather: BR  (mist)
Text: BECMG 1912/1914 00000KT
Forecast period: 1200 to 1800 UTC 19 August 2019
Forecast type: BECOMING: Conditions expected to become as follows by 1400 UTC 19 August 2019
Winds: calm
Visibility: 3 miles (5 km)
Ceiling: at least 12,000 feet AGL
Clouds: few clouds at 2000 feet AGL
Weather: BR  (mist)